America — WDE6076 — position and weather

sailwx.info

Track history (hours):
 
Tides and Currents Weather Stations Pressure Air Temp Water Temp Dewpoint Dewpoint Depression Visibility Wind Speed Wind Dir Waves Ship Positions

America

Owner: ET Yacht, LLC, San Diego, CA. More information available from US FCC via Universal Licensing System and Coast Guard Vessel Documentation Center.

Last reported at 2016-Aug-27 19:33 UTC. Time now 2016-Aug-27 20:34 UTC.
Position N 40°26' W 074°02'.

Length 42 m; draft 3.5 m.

Type: Sailing vessel. MMSI: 367375550.

Date/timePositionNaut miles runAvg speedWind from/ knotsBaromVisibWave heightAir tempDewpointWater temp
2016-Aug-27 19:33N 40°26' W 074°02'4 4.4
2016-Aug-27 18:32N 40°30' W 073°58'5 0.2
2016-Aug-26 23:24N 40°26' W 074°01'4 4.4
2016-Aug-26 22:33N 40°29' W 073°59'4 2.2
2016-Aug-26 20:32N 40°25' W 074°02'2 1.5
2016-Aug-26 19:32N 40°26' W 074°01'2 0.7
2016-Aug-26 17:19N 40°25' W 074°02'2 0.1
2016-Aug-25 22:31N 40°27' W 074°01'2 0.8
2016-Aug-25 19:33N 40°25' W 074°01'3 2.7
2016-Aug-25 18:28N 40°28' W 074°02'2 0.1
2016-Aug-24 23:25N 40°26' W 074°01'3 3.4
2016-Aug-24 22:33N 40°29' W 074°00'4 0.3
2016-Aug-24 09:13N 40°25' W 074°01'1 0.1
2016-Aug-23 21:27N 40°26' W 074°02'1 0.0
2016-Aug-23 00:12N 40°26' W 074°01'5 8.4
2016-Aug-22 23:34N 40°32' W 074°02'9 9.3
2016-Aug-22 22:34N 40°41' W 074°01'67 8.1
2016-Aug-22 14:22N 41°13' W 072°44'7 8.1
2016-Aug-22 13:33N 41°14' W 072°35'8 7.8
2016-Aug-22 12:33N 41°15' W 072°25'103 5.4
2016-Aug-21 17:30N 41°26' W 070°08'6 3.2
2016-Aug-21 15:30N 41°20' W 070°05'0 0.5
2016-Aug-21 14:33N 41°20' W 070°06'3 3.0
2016-Aug-21 13:33N 41°17' W 070°06'0 0.0
2016-Aug-21 12:33N 41°17' W 070°06'0 0.1
2016-Aug-21 11:32N 41°17' W 070°05'2 1.3
2016-Aug-21 10:11N 41°19' W 070°05'0 0.0
2016-Aug-21 09:30N 41°19' W 070°05'0 0.0
2016-Aug-21 08:10N 41°19' W 070°05'1 0.4
2016-Aug-21 05:34N 41°20' W 070°06'8 7.7
2016-Aug-21 04:33N 41°26' W 070°13'24 7.8
2016-Aug-21 01:29N 41°36' W 070°42'16 5.1
2016-Aug-20 22:19N 41°49' W 070°29'6 7.4
2016-Aug-20 21:33N 41°55' W 070°30'7 6.8
2016-Aug-20 20:30N 41°59' W 070°37'3 2.5
2016-Aug-20 19:28N 41°58' W 070°40'2 1.5
2016-Aug-20 18:25N 41°59' W 070°39'0 0.3
2016-Aug-20 17:33N 41°59' W 070°39'2 1.6
2016-Aug-20 16:33N 41°58' W 070°39'2 2.2
2016-Aug-20 15:32N 41°59' W 070°38'2 2.4
2016-Aug-20 14:33N 41°58' W 070°40'2 1.8
2016-Aug-20 13:32N 41°59' W 070°40'0 0.0
2016-Aug-20 12:33N 41°59' W 070°39'0 0.0
2016-Aug-20 11:27N 41°59' W 070°39'0 0.1
2016-Aug-20 10:32N 41°59' W 070°39'0 0.0
2016-Aug-20 09:33N 41°59' W 070°39'0 0.0
2016-Aug-20 08:31N 41°59' W 070°39'0 0.0
2016-Aug-20 07:29N 41°59' W 070°39'0 0.0
2016-Aug-20 06:31N 41°59' W 070°39'0 0.0
2016-Aug-20 05:32N 41°59' W 070°39'0 0.0
2016-Aug-20 04:23N 41°59' W 070°39'0 0.0
2016-Aug-20 03:33N 41°59' W 070°39'0 0.0
2016-Aug-20 00:33N 41°59' W 070°39'0 0.0
2016-Aug-19 23:33N 41°59' W 070°39'0 0.0
2016-Aug-19 22:27N 41°59' W 070°39'0 0.0
2016-Aug-19 21:33N 41°59' W 070°39'2 0.6
2016-Aug-19 18:25N 41°58' W 070°40'2 1.8
2016-Aug-19 17:33N 41°59' W 070°39'2 0.7
2016-Aug-19 15:17N 41°58' W 070°40'0 0.0
2016-Aug-19 14:33N 41°58' W 070°40'2 0.4
2016-Aug-19 10:04N 41°59' W 070°39'0 0.0
2016-Aug-19 09:19N 41°59' W 070°39'0 0.0
2016-Aug-18 13:17N 41°59' W 070°40'0 0.0
2016-Aug-18 12:23N 41°59' W 070°40'0 0.1
2016-Aug-18 11:23N 41°59' W 070°40'0 0.1
2016-Aug-18 10:29N 41°59' W 070°40'  
Track history (hours):
 
Tides and Currents Weather Stations Pressure Air Temp Water Temp Dewpoint Dewpoint Depression Visibility Wind Speed Wind Dir Waves Ship Positions

America

Owner: ET Yacht, LLC, San Diego, CA. More information available from US FCC via Universal Licensing System and Coast Guard Vessel Documentation Center.

Last reported at 2016-Aug-27 19:33 UTC. Time now 2016-Aug-27 20:34 UTC.
Position N 40°26' W 074°02'.

Length 42 m; draft 3.5 m.

Type: Sailing vessel. MMSI: 367375550.

Date/timePositionNaut miles runAvg speedWind from/ knotsBaromVisibWave heightAir tempDewpointWater temp
2016-Aug-27 19:33N 40°26' W 074°02'4 4.4
2016-Aug-27 18:32N 40°30' W 073°58'5 0.2
2016-Aug-26 23:24N 40°26' W 074°01'4 4.4
2016-Aug-26 22:33N 40°29' W 073°59'4 2.2
2016-Aug-26 20:32N 40°25' W 074°02'2 1.5
2016-Aug-26 19:32N 40°26' W 074°01'2 0.7
2016-Aug-26 17:19N 40°25' W 074°02'2 0.1
2016-Aug-25 22:31N 40°27' W 074°01'2 0.8
2016-Aug-25 19:33N 40°25' W 074°01'3 2.7
2016-Aug-25 18:28N 40°28' W 074°02'2 0.1
2016-Aug-24 23:25N 40°26' W 074°01'3 3.4
2016-Aug-24 22:33N 40°29' W 074°00'4 0.3
2016-Aug-24 09:13N 40°25' W 074°01'1 0.1
2016-Aug-23 21:27N 40°26' W 074°02'1 0.0
2016-Aug-23 00:12N 40°26' W 074°01'5 8.4
2016-Aug-22 23:34N 40°32' W 074°02'9 9.3
2016-Aug-22 22:34N 40°41' W 074°01'67 8.1
2016-Aug-22 14:22N 41°13' W 072°44'7 8.1
2016-Aug-22 13:33N 41°14' W 072°35'8 7.8
2016-Aug-22 12:33N 41°15' W 072°25'103 5.4
2016-Aug-21 17:30N 41°26' W 070°08'6 3.2
2016-Aug-21 15:30N 41°20' W 070°05'0 0.5
2016-Aug-21 14:33N 41°20' W 070°06'3 3.0
2016-Aug-21 13:33N 41°17' W 070°06'0 0.0
2016-Aug-21 12:33N 41°17' W 070°06'0 0.1
2016-Aug-21 11:32N 41°17' W 070°05'2 1.3
2016-Aug-21 10:11N 41°19' W 070°05'0 0.0
2016-Aug-21 09:30N 41°19' W 070°05'0 0.0
2016-Aug-21 08:10N 41°19' W 070°05'1 0.4
2016-Aug-21 05:34N 41°20' W 070°06'8 7.7
2016-Aug-21 04:33N 41°26' W 070°13'24 7.8
2016-Aug-21 01:29N 41°36' W 070°42'16 5.1
2016-Aug-20 22:19N 41°49' W 070°29'6 7.4
2016-Aug-20 21:33N 41°55' W 070°30'7 6.8
2016-Aug-20 20:30N 41°59' W 070°37'3 2.5
2016-Aug-20 19:28N 41°58' W 070°40'2 1.5
2016-Aug-20 18:25N 41°59' W 070°39'0 0.3
2016-Aug-20 17:33N 41°59' W 070°39'2 1.6
2016-Aug-20 16:33N 41°58' W 070°39'2 2.2
2016-Aug-20 15:32N 41°59' W 070°38'2 2.4
2016-Aug-20 14:33N 41°58' W 070°40'2 1.8
2016-Aug-20 13:32N 41°59' W 070°40'0 0.0
2016-Aug-20 12:33N 41°59' W 070°39'0 0.0
2016-Aug-20 11:27N 41°59' W 070°39'0 0.1
2016-Aug-20 10:32N 41°59' W 070°39'0 0.0
2016-Aug-20 09:33N 41°59' W 070°39'0 0.0
2016-Aug-20 08:31N 41°59' W 070°39'0 0.0
2016-Aug-20 07:29N 41°59' W 070°39'0 0.0
2016-Aug-20 06:31N 41°59' W 070°39'0 0.0
2016-Aug-20 05:32N 41°59' W 070°39'0 0.0
2016-Aug-20 04:23N 41°59' W 070°39'0 0.0
2016-Aug-20 03:33N 41°59' W 070°39'0 0.0
2016-Aug-20 00:33N 41°59' W 070°39'0 0.0
2016-Aug-19 23:33N 41°59' W 070°39'0 0.0
2016-Aug-19 22:27N 41°59' W 070°39'0 0.0
2016-Aug-19 21:33N 41°59' W 070°39'2 0.6
2016-Aug-19 18:25N 41°58' W 070°40'2 1.8
2016-Aug-19 17:33N 41°59' W 070°39'2 0.7
2016-Aug-19 15:17N 41°58' W 070°40'0 0.0
2016-Aug-19 14:33N 41°58' W 070°40'2 0.4
2016-Aug-19 10:04N 41°59' W 070°39'0 0.0
2016-Aug-19 09:19N 41°59' W 070°39'0 0.0
2016-Aug-18 13:17N 41°59' W 070°40'0 0.0
2016-Aug-18 12:23N 41°59' W 070°40'0 0.1
2016-Aug-18 11:23N 41°59' W 070°40'0 0.1
2016-Aug-18 10:29N 41°59' W 070°40'  

Dump ship's entire track history